Time,TemperatureF,DewpointF,PressureIn,WindDirection,WindDirectionDegrees,WindSpeedMPH,WindSpeedGustMPH,Humidity,HourlyPrecipIn,Conditions,Clouds,dailyrainin,SoftwareType,DateUTC
2013-01-15 00:00:00,38.4,33.4,30.24,NNE,20,5.0,5.0,82,0.00,,,0.01,Wunderground v.1.15,2013-01-15 05:00:00,
2013-01-15 00:05:00,38.5,33.2,30.24,NNW,343,7.0,9.0,81,0.00,,,0.00,Wunderground v.1.15,2013-01-15 05:05:00,
2013-01-15 00:10:00,38.5,32.9,30.24,NNW,330,7.0,7.0,80,0.00,,,0.00,Wunderground v.1.15,2013-01-15 05:10:00,
2013-01-15 00:15:00,38.5,32.9,30.25,NNW,334,6.0,13.0,80,0.00,,,0.00,Wunderground v.1.15,2013-01-15 05:15:00,
2013-01-15 00:20:00,38.3,33.3,30.26,NE,46,6.0,6.0,82,0.00,,,0.00,Wunderground v.1.15,2013-01-15 05:20:00,
2013-01-15 00:25:00,38.1,33.4,30.26,NNW,342,5.0,6.0,83,0.00,,,0.00,Wunderground v.1.15,2013-01-15 05:25:00,
2013-01-15 08:45:00,36.7,33.2,30.30,North,360,3.0,9.0,87,0.00,,,0.10,Wunderground v.1.15,2013-01-15 13:45:00,
2013-01-15 08:50:00,36.8,33.3,30.30,ENE,63,3.0,9.0,87,0.00,,,0.10,Wunderground v.1.15,2013-01-15 13:50:00,
2013-01-15 08:55:00,36.8,33.0,30.30,NW,311,4.0,6.0,86,0.00,,,0.10,Wunderground v.1.15,2013-01-15 13:55:00,
2013-01-15 09:00:00,36.9,32.8,30.31,NW,318,3.0,3.0,85,0.00,,,0.10,Wunderground v.1.15,2013-01-15 14:00:00,
2013-01-15 09:05:00,37.0,33.2,30.31,NNW,340,3.0,3.0,86,0.00,,,0.10,Wunderground v.1.15,2013-01-15 14:05:00,
2013-01-15 09:15:00,37.0,32.9,30.31,NNW,338,3.0,3.0,85,0.00,,,0.10,Wunderground v.1.15,2013-01-15 14:15:00,
2013-01-15 09:20:00,37.1,33.0,30.31,NW,305,2.0,3.0,85,0.00,,,0.10,Wunderground v.1.15,2013-01-15 14:20:00,
2013-01-15 09:30:00,37.2,32.5,30.31,NNE,32,3.0,3.0,83,0.00,,,0.10,Wunderground v.1.15,2013-01-15 14:30:00,
2013-01-15 09:35:00,37.2,32.2,30.31,NNE,25,3.0,3.0,82,0.00,,,0.10,Wunderground v.1.15,2013-01-15 14:35:00,
2013-01-15 09:40:00,37.2,32.2,30.31,NW,316,3.0,3.0,82,0.00,,,0.10,Wunderground v.1.15,2013-01-15 14:40:00,
2013-01-15 09:45:00,37.3,32.6,30.31,NNE,22,3.0,4.0,83,0.00,,,0.10,Wunderground v.1.15,2013-01-15 14:45:00,
2013-01-15 09:50:00,37.4,32.4,30.31,North,8,3.0,3.0,82,0.00,,,0.10,Wunderground v.1.15,2013-01-15 14:50:00,
2013-01-15 09:55:00,37.6,32.6,30.31,NNE,27,2.0,3.0,82,0.00,,,0.10,Wunderground v.1.15,2013-01-15 14:55:00,
2013-01-15 10:00:00,37.6,32.0,30.31,NNW,330,3.0,3.0,80,0.00,,,0.10,Wunderground v.1.15,2013-01-15 15:00:00,
2013-01-15 10:05:00,37.7,32.1,30.31,NNE,30,4.0,5.0,80,0.00,,,0.10,Wunderground v.1.15,2013-01-15 15:05:00,
2013-01-15 10:10:00,37.7,31.8,30.31,NNW,341,4.0,4.0,79,0.00,,,0.10,Wunderground v.1.15,2013-01-15 15:10:00,
2013-01-15 10:15:00,37.7,31.8,30.31,NW,322,5.0,6.0,79,0.00,,,0.10,Wunderground v.1.15,2013-01-15 15:15:00,
2013-01-15 10:20:00,37.8,31.6,30.30,NNW,330,5.0,5.0,78,0.00,,,0.10,Wunderground v.1.15,2013-01-15 15:20:00,
2013-01-15 10:25:00,37.9,32.0,30.30,NW,322,4.0,6.0,79,0.00,,,0.10,Wunderground v.1.15,2013-01-15 15:25:00,
2013-01-15 10:30:00,38.0,31.7,30.30,NW,323,4.0,7.0,78,0.00,,,0.10,Wunderground v.1.15,2013-01-15 15:30:00,
2013-01-15 10:35:00,38.0,31.4,30.30,NNW,343,5.0,5.0,77,0.00,,,0.10,Wunderground v.1.15,2013-01-15 15:35:00,
2013-01-15 10:40:00,38.1,31.8,30.30,NE,53,5.0,5.0,78,0.00,,,0.10,Wunderground v.1.15,2013-01-15 15:40:00,
2013-01-15 10:45:00,38.4,32.5,30.30,North,4,3.0,3.0,79,0.00,,,0.10,Wunderground v.1.15,2013-01-15 15:45:00,
2013-01-15 10:55:00,38.5,31.9,30.29,NW,316,3.0,3.0,77,0.00,,,0.10,Wunderground v.1.15,2013-01-15 15:55:00,
2013-01-15 11:05:00,38.5,31.3,30.28,NW,321,4.0,5.0,75,0.00,,,0.10,Wunderground v.1.15,2013-01-15 16:05:00,
2013-01-15 11:10:00,38.7,31.5,30.28,NNE,26,5.0,5.0,75,0.00,,,0.10,Wunderground v.1.15,2013-01-15 16:10:00,
2013-01-15 11:15:00,38.7,31.8,30.28,NE,39,4.0,5.0,76,0.00,,,0.10,Wunderground v.1.15,2013-01-15 16:15:00,
2013-01-15 11:20:00,38.8,31.6,30.28,NNE,15,3.0,3.0,75,0.00,,,0.10,Wunderground v.1.15,2013-01-15 16:20:00,
2013-01-15 11:25:00,38.7,31.5,30.29,NNE,21,4.0,4.0,75,0.00,,,0.10,Wunderground v.1.15,2013-01-15 16:25:00,
2013-01-15 11:30:00,38.8,31.6,30.28,NNE,23,4.0,4.0,75,0.00,,,0.10,Wunderground v.1.15,2013-01-15 16:30:00,
2013-01-15 11:35:00,38.9,31.6,30.29,NE,41,2.0,4.0,75,0.00,,,0.10,Wunderground v.1.15,2013-01-15 16:35:00,
2013-01-15 11:40:00,39.0,31.7,30.29,NNW,327,2.0,6.0,75,0.00,,,0.10,Wunderground v.1.15,2013-01-15 16:40:00,
2013-01-15 11:50:00,39.2,32.3,30.28,NNW,330,3.0,3.0,76,0.00,,,0.10,Wunderground v.1.15,2013-01-15 16:50:00,
2013-01-15 11:55:00,39.2,31.6,30.28,NE,39,2.0,3.0,74,0.00,,,0.10,Wunderground v.1.15,2013-01-15 16:55:00,
2013-01-15 12:00:00,39.3,32.0,30.28,NW,316,2.0,8.0,75,0.00,,,0.10,Wunderground v.1.15,2013-01-15 17:00:00,
2013-01-15 12:05:00,39.3,31.7,30.28,NNE,22,3.0,5.0,74,0.00,,,0.10,Wunderground v.1.15,2013-01-15 17:05:00,
2013-01-15 12:10:00,39.3,31.7,30.28,NNE,32,3.0,3.0,74,0.00,,,0.10,Wunderground v.1.15,2013-01-15 17:10:00,
2013-01-15 12:15:00,39.5,32.2,30.28,North,350,3.0,3.0,75,0.00,,,0.10,Wunderground v.1.15,2013-01-15 17:15:00,
2013-01-15 12:20:00,39.8,32.8,30.27,NE,39,1.0,2.0,76,0.00,,,0.10,Wunderground v.1.15,2013-01-15 17:20:00,
2013-01-15 12:25:00,39.8,32.2,30.27,NNE,33,1.0,2.0,74,0.00,,,0.10,Wunderground v.1.15,2013-01-15 17:25:00,
2013-01-15 12:30:00,40.0,32.7,30.28,North,349,2.0,2.0,75,0.00,,,0.10,Wunderground v.1.15,2013-01-15 17:30:00,
2013-01-15 12:35:00,39.9,32.3,30.27,NNW,335,2.0,2.0,74,0.00,,,0.10,Wunderground v.1.15,2013-01-15 17:35:00,
2013-01-15 12:50:00,40.1,32.1,30.27,NNW,338,3.0,3.0,73,0.00,,,0.10,Wunderground v.1.15,2013-01-15 17:50:00,
2013-01-15 12:55:00,40.1,32.1,30.26,North,357,3.0,3.0,73,0.00,,,0.10,Wunderground v.1.15,2013-01-15 17:55:00,
2013-01-15 13:00:00,40.2,32.6,30.25,NW,319,3.0,3.0,74,0.00,,,0.10,Wunderground v.1.15,2013-01-15 18:00:00,
2013-01-15 13:05:00,40.5,32.9,30.25,NE,39,1.0,2.0,74,0.00,,,0.10,Wunderground v.1.15,2013-01-15 18:05:00,
2013-01-15 13:10:00,40.5,32.9,30.26,NNE,32,1.0,1.0,74,0.00,,,0.10,Wunderground v.1.15,2013-01-15 18:10:00,
2013-01-15 13:20:00,40.6,33.0,30.26,NNW,339,2.0,2.0,74,0.00,,,0.10,Wunderground v.1.15,2013-01-15 18:20:00,
2013-01-15 13:25:00,40.6,32.6,30.26,NW,305,2.0,2.0,73,0.00,,,0.10,Wunderground v.1.15,2013-01-15 18:25:00,
2013-01-15 13:30:00,40.6,32.6,30.26,NW,309,2.0,2.0,73,0.00,,,0.10,Wunderground v.1.15,2013-01-15 18:30:00,
2013-01-15 13:35:00,40.6,32.3,30.26,NW,314,1.0,1.0,72,0.00,,,0.10,Wunderground v.1.15,2013-01-15 18:35:00,
2013-01-15 13:40:00,40.6,32.6,30.25,NNE,15,1.0,1.0,73,0.00,,,0.10,Wunderground v.1.15,2013-01-15 18:40:00,
2013-01-15 13:45:00,40.6,32.6,30.26,NW,323,2.0,3.0,73,0.00,,,0.10,Wunderground v.1.15,2013-01-15 18:45:00,
2013-01-15 13:50:00,40.6,32.6,30.25,NNW,330,2.0,3.0,73,0.00,,,0.10,Wunderground v.1.15,2013-01-15 18:50:00,
2013-01-15 13:55:00,40.6,33.0,30.25,NNW,344,2.0,3.0,74,0.00,,,0.10,Wunderground v.1.15,2013-01-15 18:55:00,
2013-01-15 14:00:00,40.6,32.6,30.26,NNW,338,2.0,4.0,73,0.00,,,0.10,Wunderground v.1.15,2013-01-15 19:00:00,
2013-01-15 14:10:00,40.7,32.7,30.25,NNW,330,2.0,3.0,73,0.00,,,0.10,Wunderground v.1.15,2013-01-15 19:10:00,
2013-01-15 14:15:00,40.7,32.7,30.25,WNW,301,2.0,2.0,73,0.00,,,0.10,Wunderground v.1.15,2013-01-15 19:15:00,
2013-01-15 14:20:00,40.8,32.8,30.25,NE,51,2.0,2.0,73,0.00,,,0.10,Wunderground v.1.15,2013-01-15 19:20:00,
2013-01-15 14:25:00,40.9,32.9,30.25,NNE,16,1.0,2.0,73,0.00,,,0.10,Wunderground v.1.15,2013-01-15 19:25:00,
2013-01-15 14:30:00,40.9,32.2,30.26,North,357,2.0,2.0,71,0.00,,,0.10,Wunderground v.1.15,2013-01-15 19:30:00,
2013-01-15 14:35:00,40.9,32.6,30.26,NE,44,3.0,3.0,72,0.00,,,0.10,Wunderground v.1.15,2013-01-15 19:35:00,
2013-01-15 14:40:00,40.9,32.6,30.26,NE,34,2.0,2.0,72,0.00,,,0.10,Wunderground v.1.15,2013-01-15 19:40:00,
2013-01-15 14:45:00,40.9,32.9,30.26,NNE,33,2.0,2.0,73,0.00,,,0.10,Wunderground v.1.15,2013-01-15 19:45:00,
2013-01-15 14:50:00,40.9,32.2,30.25,NNE,33,2.0,3.0,71,0.00,,,0.10,Wunderground v.1.15,2013-01-15 19:50:00,
2013-01-15 14:55:00,40.9,32.2,30.25,NE,51,2.0,3.0,71,0.00,,,0.10,Wunderground v.1.15,2013-01-15 19:55:00,
2013-01-15 15:00:00,40.9,32.6,30.25,NE,53,1.0,1.0,72,0.00,,,0.10,Wunderground v.1.15,2013-01-15 20:00:00,
2013-01-15 15:05:00,40.9,32.2,30.25,NNE,32,1.0,1.0,71,0.00,,,0.10,Wunderground v.1.15,2013-01-15 20:05:00,
2013-01-15 15:10:00,41.0,32.3,30.25,NE,49,1.0,1.0,71,0.00,,,0.10,Wunderground v.1.15,2013-01-15 20:10:00,
2013-01-15 15:16:00,41.0,32.3,30.25,NE,46,1.0,1.0,71,0.00,,,0.10,Wunderground v.1.15,2013-01-15 20:16:00,
2013-01-15 15:25:00,40.9,32.2,30.25,NW,308,1.0,1.0,71,0.00,,,0.10,Wunderground v.1.15,2013-01-15 20:25:00,
2013-01-15 15:31:00,40.9,32.2,30.25,WNW,301,1.0,1.0,71,0.00,,,0.10,Wunderground v.1.15,2013-01-15 20:31:00,
2013-01-15 15:40:00,40.8,32.5,30.25,NW,304,1.0,1.0,72,0.00,,,0.10,Wunderground v.1.15,2013-01-15 20:40:00,
2013-01-15 15:45:00,40.7,32.0,30.24,NNE,18,1.0,2.0,71,0.00,,,0.10,Wunderground v.1.15,2013-01-15 20:45:00,
2013-01-15 15:50:00,40.7,32.0,30.25,NNE,18,1.0,1.0,71,0.00,,,0.10,Wunderground v.1.15,2013-01-15 20:50:00,
2013-01-15 15:55:00,40.6,31.9,30.25,North,355,1.0,1.0,71,0.00,,,0.10,Wunderground v.1.15,2013-01-15 20:55:00,
2013-01-15 16:06:00,40.6,32.3,30.25,WNW,300,0.0,0.0,72,0.00,,,0.10,Wunderground v.1.15,2013-01-15 21:06:00,
2013-01-15 16:15:00,40.4,32.4,30.26,WNW,300,0.0,0.0,73,0.00,,,0.10,Wunderground v.1.15,2013-01-15 21:15:00,
2013-01-15 16:20:00,40.4,32.1,30.25,WNW,301,0.0,0.0,72,0.00,,,0.10,Wunderground v.1.15,2013-01-15 21:20:00,
2013-01-15 16:30:00,40.3,32.3,30.26,West,279,0.0,0.0,73,0.00,,,0.10,Wunderground v.1.15,2013-01-15 21:30:00,
2013-01-15 16:35:00,40.2,32.2,30.26,West,280,0.0,0.0,73,0.00,,,0.10,Wunderground v.1.15,2013-01-15 21:35:00,
2013-01-15 16:40:00,40.1,32.1,30.26,WNW,297,0.0,0.0,73,0.00,,,0.10,Wunderground v.1.15,2013-01-15 21:40:00,
2013-01-15 16:45:00,40.1,32.1,30.27,WNW,297,0.0,0.0,73,0.00,,,0.10,Wunderground v.1.15,2013-01-15 21:45:00,
2013-01-15 16:50:00,40.1,32.5,30.27,West,274,0.0,0.0,74,0.00,,,0.10,Wunderground v.1.15,2013-01-15 21:50:00,
2013-01-15 17:00:00,40.1,32.1,30.27,West,274,0.0,0.0,73,0.00,,,0.10,Wunderground v.1.15,2013-01-15 22:00:00,
2013-01-15 17:05:00,40.0,32.0,30.27,West,276,0.0,0.0,73,0.00,,,0.10,Wunderground v.1.15,2013-01-15 22:05:00,
2013-01-15 17:10:00,40.0,32.0,30.26,NW,319,0.0,0.0,73,0.00,,,0.10,Wunderground v.1.15,2013-01-15 22:10:00,
2013-01-15 17:15:00,40.0,32.0,30.26,NW,314,0.0,0.0,73,0.00,,,0.10,Wunderground v.1.15,2013-01-15 22:15:00,
2013-01-15 17:20:00,40.0,32.0,30.26,NW,321,0.0,0.0,73,0.00,,,0.10,Wunderground v.1.15,2013-01-15 22:20:00,
2013-01-15 17:25:00,40.0,31.7,30.26,NNW,333,1.0,1.0,72,0.00,,,0.10,Wunderground v.1.15,2013-01-15 22:25:00,
2013-01-15 17:30:00,39.9,31.6,30.26,NW,321,1.0,2.0,72,0.00,,,0.10,Wunderground v.1.15,2013-01-15 22:30:00,
2013-01-15 17:35:00,39.8,31.8,30.26,NNW,344,2.0,4.0,73,0.00,,,0.10,Wunderground v.1.15,2013-01-15 22:35:00,
2013-01-15 17:40:00,39.7,31.4,30.26,NW,322,1.0,1.0,72,0.00,,,0.10,Wunderground v.1.15,2013-01-15 22:40:00,
2013-01-15 17:45:00,39.6,31.3,30.27,NW,315,1.0,2.0,72,0.00,,,0.10,Wunderground v.1.15,2013-01-15 22:45:00,
2013-01-15 17:50:00,39.5,31.2,30.27,NW,323,1.0,2.0,72,0.00,,,0.10,Wunderground v.1.15,2013-01-15 22:50:00,
2013-01-15 17:55:00,39.4,31.1,30.27,NNW,347,1.0,2.0,72,0.00,,,0.10,Wunderground v.1.15,2013-01-15 22:55:00,
2013-01-15 18:00:00,39.3,31.0,30.27,WNW,283,2.0,2.0,72,0.00,,,0.10,Wunderground v.1.15,2013-01-15 23:00:00,
2013-01-15 18:05:00,39.3,31.0,30.27,WNW,290,2.0,2.0,72,0.00,,,0.10,Wunderground v.1.15,2013-01-15 23:05:00,
2013-01-15 18:10:00,39.2,30.9,30.26,NW,309,1.0,1.0,72,0.00,,,0.10,Wunderground v.1.15,2013-01-15 23:10:00,
2013-01-15 18:15:00,39.2,31.3,30.27,NW,323,1.0,1.0,73,0.00,,,0.10,Wunderground v.1.15,2013-01-15 23:15:00,
2013-01-15 18:20:00,39.1,31.2,30.27,WNW,298,1.0,1.0,73,0.00,,,0.10,Wunderground v.1.15,2013-01-15 23:20:00,
2013-01-15 18:30:00,38.9,31.0,30.26,NNW,328,0.0,2.0,73,0.00,,,0.10,Wunderground v.1.15,2013-01-15 23:30:00,
2013-01-15 18:35:00,38.9,31.0,30.26,NW,305,1.0,2.0,73,0.00,,,0.10,Wunderground v.1.15,2013-01-15 23:35:00,
2013-01-15 18:45:00,38.7,30.8,30.26,NNW,328,2.0,3.0,73,0.00,,,0.10,Wunderground v.1.15,2013-01-15 23:45:00,
2013-01-15 18:56:00,38.6,30.4,30.26,NW,326,2.0,2.0,72,0.00,,,0.10,Wunderground v.1.15,2013-01-15 23:56:00,
2013-01-15 19:05:00,38.6,30.7,30.25,NNW,333,3.0,3.0,73,0.00,,,0.10,Wunderground v.1.15,2013-01-16 00:05:00,
2013-01-15 19:10:00,38.5,30.3,30.25,NNW,347,3.0,3.0,72,0.00,,,0.10,Wunderground v.1.15,2013-01-16 00:10:00,
2013-01-15 19:15:00,38.5,30.6,30.25,NW,325,2.0,3.0,73,0.00,,,0.10,Wunderground v.1.15,2013-01-16 00:15:00,
2013-01-15 19:20:00,38.5,30.6,30.25,NNW,343,2.0,2.0,73,0.00,,,0.10,Wunderground v.1.15,2013-01-16 00:20:00,
2013-01-15 19:25:00,38.5,30.3,30.25,NE,39,3.0,3.0,72,0.00,,,0.10,Wunderground v.1.15,2013-01-16 00:25:00,
2013-01-15 19:30:00,38.5,30.3,30.26,WNW,287,3.0,3.0,72,0.00,,,0.10,Wunderground v.1.15,2013-01-16 00:30:00,
2013-01-15 19:35:00,38.5,30.3,30.25,WNW,297,3.0,3.0,72,0.00,,,0.10,Wunderground v.1.15,2013-01-16 00:35:00,
2013-01-15 19:40:00,38.5,29.9,30.26,NNW,335,3.0,3.0,71,0.00,,,0.10,Wunderground v.1.15,2013-01-16 00:40:00,
2013-01-15 19:45:00,38.5,29.9,30.26,WNW,303,3.0,3.0,71,0.00,,,0.10,Wunderground v.1.15,2013-01-16 00:45:00,
2013-01-15 19:50:00,38.5,29.9,30.26,NW,311,3.0,3.0,71,0.00,,,0.10,Wunderground v.1.15,2013-01-16 00:50:00,
2013-01-15 19:55:00,38.5,29.9,30.27,NW,307,3.0,5.0,71,0.00,,,0.10,Wunderground v.1.15,2013-01-16 00:55:00,
2013-01-15 20:00:00,38.5,29.9,30.27,WNW,290,3.0,3.0,71,0.00,,,0.10,Wunderground v.1.15,2013-01-16 01:00:00,
2013-01-15 20:05:00,38.5,29.6,30.27,NW,307,3.0,4.0,70,0.00,,,0.10,Wunderground v.1.15,2013-01-16 01:05:00,
2013-01-15 20:10:00,38.5,29.6,30.27,WNW,300,3.0,3.0,70,0.00,,,0.10,Wunderground v.1.15,2013-01-16 01:10:00,
2013-01-15 20:15:00,38.5,29.6,30.27,WNW,301,3.0,3.0,70,0.00,,,0.10,Wunderground v.1.15,2013-01-16 01:15:00,
2013-01-15 20:20:00,38.5,29.6,30.27,North,356,2.0,2.0,70,0.00,,,0.10,Wunderground v.1.15,2013-01-16 01:20:00,
2013-01-15 20:25:00,38.4,29.5,30.26,NNW,333,2.0,2.0,70,0.00,,,0.10,Wunderground v.1.15,2013-01-16 01:25:00,
2013-01-15 20:30:00,38.5,29.6,30.26,NNW,335,2.0,2.0,70,0.00,,,0.10,Wunderground v.1.15,2013-01-16 01:30:00,
2013-01-15 20:35:00,38.4,29.8,30.26,NNW,333,2.0,4.0,71,0.00,,,0.10,Wunderground v.1.15,2013-01-16 01:35:00,
2013-01-15 20:45:00,38.3,29.4,30.25,NW,307,2.0,4.0,70,0.00,,,0.10,Wunderground v.1.15,2013-01-16 01:45:00,
2013-01-15 20:50:00,38.3,29.4,30.26,North,357,2.0,2.0,70,0.00,,,0.10,Wunderground v.1.15,2013-01-16 01:50:00,
2013-01-15 21:00:00,38.2,29.6,30.25,NE,39,1.0,2.0,71,0.00,,,0.10,Wunderground v.1.15,2013-01-16 02:00:00,
2013-01-15 21:10:00,38.2,30.0,30.24,NW,321,1.0,1.0,72,0.00,,,0.10,Wunderground v.1.15,2013-01-16 02:10:00,
2013-01-15 21:15:00,38.2,30.0,30.24,NE,44,1.0,3.0,72,0.00,,,0.10,Wunderground v.1.15,2013-01-16 02:15:00,
2013-01-15 21:25:00,38.1,29.9,30.24,North,353,2.0,3.0,72,0.00,,,0.10,Wunderground v.1.15,2013-01-16 02:25:00,
2013-01-15 21:30:00,38.1,29.5,30.25,NW,322,1.0,1.0,71,0.00,,,0.10,Wunderground v.1.15,2013-01-16 02:30:00,
2013-01-15 21:35:00,38.1,29.5,30.25,NE,53,1.0,1.0,71,0.00,,,0.10,Wunderground v.1.15,2013-01-16 02:35:00,
2013-01-15 21:40:00,38.1,29.5,30.25,North,360,1.0,3.0,71,0.00,,,0.10,Wunderground v.1.15,2013-01-16 02:40:00,
2013-01-15 21:45:00,38.1,29.2,30.25,North,6,1.0,3.0,70,0.00,,,0.10,Wunderground v.1.15,2013-01-16 02:45:00,
2013-01-15 21:55:00,38.1,29.2,30.25,North,4,2.0,2.0,70,0.00,,,0.10,Wunderground v.1.15,2013-01-16 02:55:00,
2013-01-15 22:00:00,38.1,29.2,30.25,North,360,2.0,2.0,70,0.00,,,0.10,Wunderground v.1.15,2013-01-16 03:00:00,
2013-01-15 22:05:00,38.1,29.2,30.25,North,1,2.0,2.0,70,0.00,,,0.10,Wunderground v.1.15,2013-01-16 03:05:00,
2013-01-15 22:15:00,38.1,29.2,30.25,NNE,13,2.0,2.0,70,0.00,,,0.10,Wunderground v.1.15,2013-01-16 03:15:00,
2013-01-15 22:25:00,38.0,29.4,30.25,NE,44,2.0,2.0,71,0.00,,,0.10,Wunderground v.1.15,2013-01-16 03:25:00,
2013-01-15 22:30:00,38.1,29.5,30.24,North,1,1.0,1.0,71,0.00,,,0.10,Wunderground v.1.15,2013-01-16 03:30:00,
2013-01-15 22:35:00,38.1,29.2,30.24,NNE,23,2.0,3.0,70,0.00,,,0.10,Wunderground v.1.15,2013-01-16 03:35:00,
2013-01-15 22:40:00,38.1,28.8,30.24,NNE,30,2.0,2.0,69,0.00,,,0.10,Wunderground v.1.15,2013-01-16 03:40:00,
2013-01-15 22:45:00,38.1,29.2,30.24,NNE,30,2.0,2.0,70,0.00,,,0.10,Wunderground v.1.15,2013-01-16 03:45:00,
2013-01-15 22:55:00,38.1,29.2,30.22,NNE,30,3.0,3.0,70,0.00,,,0.10,Wunderground v.1.15,2013-01-16 03:55:00,
2013-01-15 23:00:00,38.0,29.8,30.22,NNE,22,3.0,4.0,72,0.00,,,0.10,Wunderground v.1.15,2013-01-16 04:00:00,
2013-01-15 23:05:00,38.0,29.8,30.22,NE,39,3.0,4.0,72,0.00,,,0.10,Wunderground v.1.15,2013-01-16 04:05:00,
2013-01-15 23:10:00,38.0,29.8,30.22,NW,323,3.0,3.0,72,0.00,,,0.10,Wunderground v.1.15,2013-01-16 04:10:00,
2013-01-15 23:20:00,37.8,29.2,30.22,NW,309,3.0,3.0,71,0.00,,,0.10,Wunderground v.1.15,2013-01-16 04:20:00,
2013-01-15 23:25:00,37.8,29.2,30.22,NNW,328,3.0,3.0,71,0.00,,,0.10,Wunderground v.1.15,2013-01-16 04:25:00,
2013-01-15 23:30:00,37.7,29.1,30.22,NE,54,3.0,3.0,71,0.00,,,0.10,Wunderground v.1.15,2013-01-16 04:30:00,
2013-01-15 23:35:00,37.7,29.1,30.22,NNE,19,3.0,3.0,71,0.00,,,0.10,Wunderground v.1.15,2013-01-16 04:35:00,
2013-01-15 23:40:00,37.6,29.0,30.22,North,358,3.0,3.0,71,0.00,,,0.10,Wunderground v.1.15,2013-01-16 04:40:00,
2013-01-15 23:45:00,37.6,29.0,30.22,WNW,295,2.0,3.0,71,0.00,,,0.10,Wunderground v.1.15,2013-01-16 04:45:00,
2013-01-15 23:50:00,37.6,29.0,30.23,NE,37,1.0,1.0,71,0.00,,,0.10,Wunderground v.1.15,2013-01-16 04:50:00,
2013-01-15 23:55:00,37.5,29.3,30.23,NNE,27,1.0,2.0,72,0.00,,,0.10,Wunderground v.1.15,2013-01-16 04:55:00,